Time;durP1;ratioP1;P1;durP2;ratioP2;P2;SDS_P1;SDS_P2;PMS_P1;PMS_P2;Temp;Humidity;BMP_temperature;BMP_pressure;BME280_temperature;BME280_humidity;BME280_pressure;Samples;Min_cycle;Max_cycle;Signal;HPM_P1;HPM_P2
2023/10/08 04:30:28;;;;;;;0.00;0.00;;;15.30;76.70;;;;;;5992001;23;20157;31
2023/10/08 04:33:06;;;;;;;0.00;0.00;;;15.20;76.50;;;;;;4882168;29;20096;-87
2023/10/08 04:35:36;;;;;;;0.10;0.10;;;15.20;76.20;;;;;;4863229;29;20033;-86
2023/10/08 04:38:03;;;;;;;0.00;0.00;;;15.10;76.10;;;;;;4855183;29;20038;-86
2023/10/08 04:40:33;;;;;;;0.03;0.03;;;15.00;76.10;;;;;;4867082;29;20025;-87
2023/10/08 04:43:02;;;;;;;0.00;0.00;;;15.00;76.10;;;;;;4863645;29;20029;-86
2023/10/08 04:45:33;;;;;;;0.00;0.00;;;15.00;76.00;;;;;;4862591;29;20037;-87
2023/10/08 04:47:59;;;;;;;0.00;0.00;;;15.00;76.00;;;;;;4863379;29;20112;-87
2023/10/08 04:50:30;;;;;;;0.00;0.00;;;15.00;75.80;;;;;;4869259;29;20057;-86
2023/10/08 04:52:58;;;;;;;0.00;0.00;;;15.00;76.10;;;;;;4846937;29;20040;-86
2023/10/08 04:55:28;;;;;;;0.10;0.05;;;14.90;76.20;;;;;;4877070;29;20025;-86
2023/10/08 04:57:55;;;;;;;0.10;0.10;;;14.90;76.30;;;;;;4864594;29;20097;-87
2023/10/08 05:03:13;;;;;;;0.00;0.00;;;14.80;76.40;;;;;;4881035;29;20116;-87
2023/10/08 05:05:55;;;;;;;0.00;0.00;;;14.80;76.40;;;;;;4875911;29;20036;-86
2023/10/08 05:08:47;;;;;;;0.00;0.00;;;14.70;76.70;;;;;;4881900;29;20501;-87
2023/10/08 05:12:08;;;;;;;0.00;0.00;;;14.70;76.90;;;;;;4865292;29;20033;-87
2023/10/08 05:14:06;;;;;;;0.10;0.10;;;14.70;77.00;;;;;;4864325;29;20037;-86
2023/10/08 05:16:43;;;;;;;0.00;0.00;;;14.60;77.20;;;;;;4846587;29;20054;-86
2023/10/08 05:19:26;;;;;;;0.10;0.10;;;14.60;77.00;;;;;;4851376;29;20169;-87
2023/10/08 05:22:01;;;;;;;0.00;0.00;;;14.60;76.90;;;;;;4865204;29;20036;-86
2023/10/08 05:24:37;;;;;;;0.00;0.00;;;14.70;76.70;;;;;;4865139;29;20048;-86
2023/10/08 05:30:25;;;;;;;0.00;0.00;;;14.60;76.50;;;;;;4851350;29;20038;-86
2023/10/08 05:51:44;;;;;;;0.00;0.00;;;14.50;76.60;;;;;;4854720;29;20037;-87
2023/10/08 05:54:35;;;;;;;0.00;0.00;;;14.50;76.60;;;;;;4827495;29;20113;-86
2023/10/08 06:00:17;;;;;;;0.00;0.00;;;14.40;76.50;;;;;;4857113;29;20049;-86
2023/10/08 06:03:09;;;;;;;0.00;0.00;;;14.50;76.50;;;;;;4859435;29;20029;-87
2023/10/08 06:05:32;;;;;;;0.10;0.10;;;14.50;76.40;;;;;;4861746;29;20038;-86
2023/10/08 06:08:11;;;;;;;0.00;0.00;;;14.40;76.40;;;;;;4844239;29;20379;-86
2023/10/08 06:15:48;;;;;;;0.07;0.07;;;14.30;76.60;;;;;;4847283;29;20401;-88
2023/10/08 06:18:25;;;;;;;0.00;0.00;;;14.20;76.70;;;;;;4830395;29;20529;-86
2023/10/08 06:20:55;;;;;;;0.00;0.00;;;14.20;76.80;;;;;;4834072;29;20089;-87
2023/10/08 06:23:23;;;;;;;0.00;0.00;;;14.30;76.70;;;;;;4873242;29;20382;-87
2023/10/08 06:26:25;;;;;;;0.10;0.10;;;14.30;76.70;;;;;;4857400;29;20105;-87
2023/10/08 06:28:44;;;;;;;0.10;0.10;;;14.30;76.90;;;;;;4852952;29;20034;-87
2023/10/08 06:31:16;;;;;;;0.00;0.00;;;14.30;77.00;;;;;;4726751;29;4058577;-82
2023/10/08 06:33:43;;;;;;;0.10;0.10;;;14.30;77.00;;;;;;4874052;29;20112;-82
2023/10/08 06:38:42;;;;;;;0.00;0.00;;;14.40;76.60;;;;;;4883911;29;20025;-81
2023/10/08 06:43:39;;;;;;;0.00;0.00;;;14.30;76.50;;;;;;4865949;29;20385;-78
2023/10/08 06:46:07;;;;;;;0.00;0.00;;;14.30;76.50;;;;;;4865417;29;20068;-79
2023/10/08 06:48:34;;;;;;;0.08;0.08;;;14.40;76.40;;;;;;4862852;29;20137;-79
2023/10/08 06:51:07;;;;;;;0.00;0.00;;;14.50;76.30;;;;;;4865597;29;20025;-77
2023/10/08 06:53:34;;;;;;;0.10;0.10;;;14.50;76.30;;;;;;4849021;29;20113;-78
2023/10/08 06:56:04;;;;;;;0.10;0.10;;;14.60;76.40;;;;;;4865353;29;20034;-78
2023/10/08 06:58:33;;;;;;;0.00;0.00;;;14.60;76.30;;;;;;4866143;29;20412;-78
2023/10/08 07:01:04;;;;;;;0.10;0.10;;;14.70;76.30;;;;;;4865387;29;20034;-85
2023/10/08 07:03:33;;;;;;;0.10;0.10;;;14.80;76.40;;;;;;4848818;29;20025;-84
2023/10/08 07:05:59;;;;;;;0.00;0.00;;;14.80;76.40;;;;;;4875436;29;20037;-79
2023/10/08 07:08:33;;;;;;;0.00;0.00;;;14.90;76.30;;;;;;4865797;29;20116;-80
2023/10/08 07:11:01;;;;;;;0.10;0.10;;;15.00;76.00;;;;;;4869741;29;20522;-78
2023/10/08 07:13:29;;;;;;;0.05;0.05;;;15.00;75.80;;;;;;4866836;29;20024;-80
2023/10/08 07:15:56;;;;;;;0.10;0.10;;;15.10;75.60;;;;;;4882036;29;20408;-81
2023/10/08 07:18:24;;;;;;;0.10;0.10;;;15.20;75.50;;;;;;4880779;29;20445;-82
2023/10/08 07:20:56;;;;;;;0.10;0.10;;;15.50;75.00;;;;;;4863262;29;20025;-79
2023/10/08 07:23:29;;;;;;;0.10;0.10;;;15.80;73.80;;;;;;4879428;29;20029;-82
2023/10/08 07:26:10;;;;;;;0.10;0.10;;;16.70;71.80;;;;;;4881115;29;20029;-81
2023/10/08 07:28:40;;;;;;;0.10;0.10;;;17.70;69.00;;;;;;4878983;29;20032;-81
2023/10/08 07:31:15;;;;;;;0.10;0.10;;;18.70;66.40;;;;;;4863942;29;20052;-79
2023/10/08 07:33:43;;;;;;;0.10;0.10;;;19.30;64.20;;;;;;4878835;29;20048;-82
2023/10/08 07:36:18;;;;;;;0.10;0.10;;;19.80;62.90;;;;;;4864892;29;20033;-81
2023/10/08 07:38:46;;;;;;;0.10;0.10;;;20.00;62.10;;;;;;4880476;29;20040;-80
2023/10/08 07:41:14;;;;;;;0.00;0.00;;;20.30;61.20;;;;;;4863556;29;20045;-81
2023/10/08 07:43:44;;;;;;;0.10;0.10;;;20.00;61.40;;;;;;4863303;29;20029;-80
2023/10/08 07:46:10;;;;;;;0.10;0.10;;;19.40;62.90;;;;;;4866035;29;20172;-78
2023/10/08 07:48:42;;;;;;;0.00;0.00;;;19.50;63.30;;;;;;4866438;29;20033;-78
2023/10/08 07:51:08;;;;;;;0.00;0.00;;;19.40;63.20;;;;;;4881861;29;20405;-82
2023/10/08 07:53:41;;;;;;;0.00;0.00;;;18.90;64.80;;;;;;4881396;29;20037;-82
2023/10/08 07:56:08;;;;;;;0.00;0.00;;;18.40;66.00;;;;;;4879006;29;20430;-82
2023/10/08 07:58:37;;;;;;;0.00;0.00;;;18.20;67.00;;;;;;4866479;29;20045;-81
2023/10/08 08:01:08;;;;;;;0.10;0.10;;;17.90;67.90;;;;;;4894868;29;20048;-81
2023/10/08 08:03:36;;;;;;;0.00;0.00;;;17.80;69.00;;;;;;4873260;29;20096;-79
2023/10/08 08:06:09;;;;;;;0.00;0.00;;;17.70;69.10;;;;;;4860175;29;20029;-82
2023/10/08 08:08:36;;;;;;;0.00;0.00;;;17.60;69.60;;;;;;4866282;29;20037;-79
2023/10/08 08:11:11;;;;;;;0.00;0.00;;;17.50;70.00;;;;;;4879976;29;20025;-78
2023/10/08 08:13:38;;;;;;;0.00;0.00;;;17.50;70.70;;;;;;4882710;29;20025;-79
2023/10/08 08:16:16;;;;;;;0.00;0.00;;;17.40;71.00;;;;;;4882345;29;20501;-76
2023/10/08 08:18:44;;;;;;;0.00;0.00;;;17.50;70.70;;;;;;4882456;29;20032;-83
2023/10/08 08:21:14;;;;;;;0.00;0.00;;;17.50;70.30;;;;;;4863667;29;20058;-78
2023/10/08 08:23:47;;;;;;;0.00;0.00;;;17.50;70.00;;;;;;4862971;29;20033;-77
2023/10/08 08:26:40;;;;;;;0.00;0.00;;;17.50;70.60;;;;;;4871120;29;20045;-77
2023/10/08 08:29:08;;;;;;;0.00;0.00;;;17.60;69.90;;;;;;4865233;29;20408;-77
2023/10/08 08:31:35;;;;;;;0.10;0.10;;;17.70;69.50;;;;;;4880872;29;20072;-77
2023/10/08 08:34:03;;;;;;;0.00;0.00;;;17.70;70.00;;;;;;4863525;29;20036;-82
2023/10/08 08:36:31;;;;;;;0.00;0.00;;;17.80;69.40;;;;;;4867807;29;20177;-84
2023/10/08 08:38:57;;;;;;;0.00;0.00;;;17.80;68.80;;;;;;4865940;29;20025;-82
2023/10/08 08:41:24;;;;;;;0.00;0.00;;;17.90;68.70;;;;;;4882353;29;20025;-83
2023/10/08 08:44:06;;;;;;;0.03;0.03;;;18.10;68.30;;;;;;4882455;29;20025;-81
2023/10/08 08:46:37;;;;;;;0.00;0.00;;;18.20;68.10;;;;;;4882420;29;20453;-81
2023/10/08 08:49:09;;;;;;;0.00;0.00;;;18.30;67.50;;;;;;4882267;29;20869;-81
2023/10/08 08:51:36;;;;;;;0.00;0.00;;;18.30;67.00;;;;;;4882151;29;20025;-81
2023/10/08 08:54:06;;;;;;;0.00;0.00;;;18.50;67.20;;;;;;4865590;29;20124;-81
2023/10/08 08:56:40;;;;;;;0.00;0.00;;;18.50;66.10;;;;;;4881931;29;20029;-83
2023/10/08 08:59:06;;;;;;;0.00;0.00;;;18.60;66.10;;;;;;4882349;29;20041;-84
2023/10/08 09:01:32;;;;;;;0.00;0.00;;;18.70;66.00;;;;;;4882132;29;20127;-84
2023/10/08 09:04:05;;;;;;;0.00;0.00;;;18.70;65.40;;;;;;4862745;29;20033;-84
2023/10/08 09:06:37;;;;;;;0.00;0.00;;;18.80;65.30;;;;;;4882014;29;20396;-83
2023/10/08 09:09:22;;;;;;;0.00;0.00;;;18.80;66.20;;;;;;4865260;29;20041;-84
2023/10/08 09:11:52;;;;;;;0.00;0.00;;;18.90;65.20;;;;;;4881538;29;20021;-83
2023/10/08 09:14:22;;;;;;;0.00;0.00;;;19.00;65.50;;;;;;4881875;29;20025;-83
2023/10/08 09:16:49;;;;;;;0.05;0.00;;;19.00;66.70;;;;;;4880788;29;20072;-81
2023/10/08 09:19:18;;;;;;;0.00;0.00;;;19.10;65.40;;;;;;4881628;29;20032;-83
2023/10/08 09:22:11;;;;;;;0.00;0.00;;;19.20;65.20;;;;;;4881676;29;20149;-83
2023/10/08 09:24:39;;;;;;;0.00;0.00;;;19.30;64.70;;;;;;4874005;29;20064;-83
2023/10/08 09:27:14;;;;;;;0.00;0.00;;;19.30;63.10;;;;;;4864707;29;20109;-79
2023/10/08 09:29:41;;;;;;;0.00;0.00;;;19.40;63.60;;;;;;4881565;29;20115;-79
2023/10/08 09:32:11;;;;;;;0.05;0.05;;;19.40;62.20;;;;;;4881758;29;20045;-82
2023/10/08 09:34:37;;;;;;;0.10;0.10;;;19.50;62.50;;;;;;4874663;29;20111;-82
2023/10/08 09:37:05;;;;;;;0.00;0.00;;;19.60;62.00;;;;;;4872842;29;20064;-80
2023/10/08 09:39:34;;;;;;;0.00;0.00;;;19.60;62.20;;;;;;4857260;29;20064;-80
2023/10/08 09:42:06;;;;;;;0.00;0.00;;;19.70;62.30;;;;;;4858736;29;20021;-80
2023/10/08 09:44:32;;;;;;;0.00;0.00;;;19.70;63.10;;;;;;4876276;29;20489;-81
2023/10/08 09:47:02;;;;;;;0.00;0.00;;;19.80;62.20;;;;;;4868431;29;20061;-81
2023/10/08 09:49:33;;;;;;;0.00;0.00;;;19.80;63.10;;;;;;4885443;29;20060;-78
2023/10/08 09:52:06;;;;;;;0.00;0.00;;;19.80;62.50;;;;;;4883319;29;20057;-79
2023/10/08 09:55:10;;;;;;;0.10;0.10;;;19.90;62.90;;;;;;4884070;29;20029;-79
2023/10/08 09:57:36;;;;;;;0.10;0.10;;;20.00;61.70;;;;;;4835827;29;20080;-79
2023/10/08 10:00:05;;;;;;;0.00;0.00;;;20.10;61.80;;;;;;4884279;29;20479;-79
2023/10/08 10:02:32;;;;;;;0.00;0.00;;;20.20;60.90;;;;;;4883385;29;20367;-89
2023/10/08 10:05:00;;;;;;;0.10;0.10;;;20.20;60.30;;;;;;4883005;29;20071;-82
2023/10/08 10:07:28;;;;;;;0.00;0.00;;;20.30;60.50;;;;;;4865434;29;20507;-82
2023/10/08 10:09:59;;;;;;;0.00;0.00;;;20.30;60.70;;;;;;4884829;29;20017;-84
2023/10/08 10:12:30;;;;;;;0.00;0.00;;;20.40;60.20;;;;;;4884350;29;20029;-82
2023/10/08 10:15:02;;;;;;;0.00;0.00;;;20.50;60.20;;;;;;4885265;29;20029;-86
2023/10/08 10:17:28;;;;;;;0.03;0.03;;;20.70;60.10;;;;;;4872386;29;20037;-88
2023/10/08 10:19:55;;;;;;;0.00;0.00;;;20.70;59.10;;;;;;4871074;29;20053;-78
2023/10/08 10:22:29;;;;;;;0.03;0.03;;;20.80;59.60;;;;;;4879625;29;20527;-82
2023/10/08 10:24:56;;;;;;;0.00;0.00;;;20.90;59.80;;;;;;4884209;29;20112;-79
2023/10/08 10:27:22;;;;;;;0.00;0.00;;;20.90;59.60;;;;;;4884985;29;20108;-82
2023/10/08 10:29:48;;;;;;;0.00;0.00;;;20.90;60.00;;;;;;4885004;29;20053;-83
2023/10/08 10:32:15;;;;;;;0.00;0.00;;;20.90;59.60;;;;;;4891284;29;20049;-83
2023/10/08 10:34:42;;;;;;;0.13;0.00;;;21.00;58.60;;;;;;4866213;29;20028;-83
2023/10/08 10:37:32;;;;;;;0.00;0.00;;;21.10;58.30;;;;;;4864824;29;20021;-82
2023/10/08 10:40:00;;;;;;;0.00;0.00;;;21.20;58.90;;;;;;4869357;29;20112;-82
2023/10/08 10:42:29;;;;;;;0.00;0.00;;;21.30;58.40;;;;;;4867951;29;20052;-84
2023/10/08 10:44:56;;;;;;;0.08;0.08;;;21.40;57.40;;;;;;4884518;29;20485;-82
2023/10/08 10:52:31;;;;;;;0.00;0.00;;;21.60;58.40;;;;;;4878773;29;20032;-82
2023/10/08 10:55:20;;;;;;;0.00;0.00;;;21.70;57.30;;;;;;4869068;29;20029;-81
2023/10/08 10:57:55;;;;;;;0.00;0.00;;;21.70;56.10;;;;;;4880440;29;20044;-82
2023/10/08 11:01:07;;;;;;;0.10;0.10;;;21.80;56.00;;;;;;4882932;29;20104;-82
2023/10/08 11:03:23;;;;;;;0.00;0.00;;;21.90;55.60;;;;;;4872562;29;20041;-82
2023/10/08 11:05:54;;;;;;;0.00;0.00;;;22.00;56.70;;;;;;4882444;29;20573;-82
2023/10/08 11:08:23;;;;;;;0.00;0.00;;;22.10;55.80;;;;;;4882222;29;20120;-82
2023/10/08 11:10:51;;;;;;;0.00;0.00;;;22.20;54.80;;;;;;4881131;29;20017;-82
2023/10/08 11:13:21;;;;;;;0.00;0.00;;;22.30;53.70;;;;;;4879537;29;20108;-85
2023/10/08 11:15:51;;;;;;;0.00;0.00;;;22.30;54.20;;;;;;4867251;29;20115;-82
2023/10/08 11:18:20;;;;;;;0.00;0.00;;;22.30;53.50;;;;;;4866728;29;20029;-86
2023/10/08 11:20:53;;;;;;;0.00;0.00;;;22.50;51.60;;;;;;4882445;29;20033;-80
2023/10/08 11:23:37;;;;;;;0.00;0.00;;;22.50;52.60;;;;;;4869263;29;20086;-79
2023/10/08 11:26:05;;;;;;;0.00;0.00;;;22.70;52.60;;;;;;4864999;29;20123;-79
2023/10/08 11:28:42;;;;;;;0.00;0.00;;;22.80;52.30;;;;;;4865103;29;20040;-79
2023/10/08 11:31:11;;;;;;;0.00;0.00;;;22.80;50.90;;;;;;4882792;29;20057;-79
2023/10/08 11:33:39;;;;;;;0.00;0.00;;;22.80;50.70;;;;;;4864907;29;20032;-79
2023/10/08 11:36:06;;;;;;;0.00;0.00;;;22.90;51.20;;;;;;4875972;29;20021;-79
2023/10/08 11:38:42;;;;;;;0.00;0.00;;;23.00;51.20;;;;;;4883283;29;20515;-79
2023/10/08 11:41:20;;;;;;;0.00;0.00;;;23.10;51.80;;;;;;4883423;29;20061;-79
2023/10/08 11:43:59;;;;;;;0.00;0.00;;;23.10;50.10;;;;;;4882628;29;20040;-79
2023/10/08 11:46:38;;;;;;;0.00;0.00;;;23.10;50.60;;;;;;4883379;29;20527;-79
2023/10/08 11:49:25;;;;;;;0.00;0.00;;;23.20;51.00;;;;;;4866098;29;20060;-79
2023/10/08 11:51:55;;;;;;;0.00;0.00;;;23.30;49.20;;;;;;4866143;29;20029;-79
2023/10/08 11:54:23;;;;;;;0.00;0.00;;;23.30;47.70;;;;;;4883592;29;20025;-79
2023/10/08 11:56:48;;;;;;;0.00;0.00;;;23.30;49.60;;;;;;4882955;29;20519;-79
2023/10/08 11:59:14;;;;;;;0.00;0.00;;;23.40;50.00;;;;;;4882961;29;20115;-79
2023/10/08 12:01:42;;;;;;;0.00;0.00;;;23.40;46.80;;;;;;4879999;29;20029;-79
2023/10/08 12:04:16;;;;;;;0.00;0.00;;;23.60;47.20;;;;;;4882816;29;20381;-79
2023/10/08 12:06:51;;;;;;;0.00;0.00;;;23.70;47.80;;;;;;4863279;29;20030;-79
2023/10/08 12:09:21;;;;;;;0.00;0.00;;;23.70;48.20;;;;;;4864453;29;20040;-79
2023/10/08 12:11:47;;;;;;;0.00;0.00;;;23.80;49.10;;;;;;4882585;29;20544;-79
2023/10/08 12:14:14;;;;;;;0.00;0.00;;;23.80;49.10;;;;;;4882689;29;20099;-79
2023/10/08 12:16:41;;;;;;;0.00;0.00;;;23.80;48.30;;;;;;4866247;29;20081;-79
2023/10/08 12:19:16;;;;;;;0.05;0.05;;;23.80;47.50;;;;;;4882614;29;20044;-79
2023/10/08 12:21:46;;;;;;;0.00;0.00;;;23.90;47.70;;;;;;4876157;29;20025;-79
2023/10/08 12:24:12;;;;;;;0.00;0.00;;;23.90;48.30;;;;;;4847116;29;20030;-79
2023/10/08 12:26:47;;;;;;;0.00;0.00;;;23.90;48.70;;;;;;4847566;29;20029;-79
2023/10/08 12:29:19;;;;;;;0.00;0.00;;;24.00;49.00;;;;;;4847439;29;20500;-79
2023/10/08 12:31:47;;;;;;;0.10;0.03;;;24.00;48.30;;;;;;4854208;29;20082;-79
2023/10/08 12:34:13;;;;;;;0.00;0.00;;;24.10;47.50;;;;;;4862688;29;20044;-79
2023/10/08 12:36:39;;;;;;;0.00;0.00;;;24.20;47.00;;;;;;4879389;29;20025;-79
2023/10/08 12:39:14;;;;;;;0.00;0.00;;;24.20;48.90;;;;;;4881285;29;20040;-79
2023/10/08 12:41:41;;;;;;;0.00;0.00;;;24.20;48.00;;;;;;4882590;29;20032;-80
2023/10/08 12:44:08;;;;;;;0.00;0.00;;;24.30;47.00;;;;;;4882240;29;20036;-79
2023/10/08 12:46:34;;;;;;;0.00;0.00;;;24.30;47.00;;;;;;4882249;29;20540;-79
2023/10/08 12:49:01;;;;;;;0.00;0.00;;;24.30;45.50;;;;;;4881914;29;20037;-79
2023/10/08 12:51:31;;;;;;;0.00;0.00;;;24.50;46.30;;;;;;4882030;29;20021;-79
2023/10/08 12:54:08;;;;;;;0.00;0.00;;;24.50;45.50;;;;;;4882114;29;20044;-80
2023/10/08 12:56:48;;;;;;;0.00;0.00;;;24.60;45.80;;;;;;4876740;29;20032;-79
2023/10/08 12:59:20;;;;;;;0.00;0.00;;;24.50;45.90;;;;;;4863723;29;20553;-79
2023/10/08 13:01:50;;;;;;;0.00;0.00;;;24.60;46.10;;;;;;4863374;29;20029;-79
2023/10/08 13:04:27;;;;;;;0.00;0.00;;;24.60;45.60;;;;;;4862345;29;20044;-83
2023/10/08 13:07:00;;;;;;;0.00;0.00;;;24.70;45.10;;;;;;4878668;29;20029;-80
2023/10/08 13:09:26;;;;;;;0.00;0.00;;;24.70;44.50;;;;;;4882052;29;20112;-80
2023/10/08 13:11:53;;;;;;;0.00;0.00;;;24.70;44.90;;;;;;4881043;29;20021;-79
2023/10/08 13:14:18;;;;;;;0.00;0.00;;;24.80;44.60;;;;;;4881967;29;20044;-77
2023/10/08 13:16:45;;;;;;;0.00;0.00;;;24.80;44.60;;;;;;4881864;29;20021;-78
2023/10/08 13:19:10;;;;;;;0.00;0.00;;;24.90;43.00;;;;;;4881630;29;20029;-80
2023/10/08 13:21:37;;;;;;;0.00;0.00;;;24.90;43.40;;;;;;4881520;29;20032;-79
2023/10/08 13:24:05;;;;;;;0.00;0.00;;;24.90;44.00;;;;;;4881216;29;20107;-79
2023/10/08 13:26:31;;;;;;;0.00;0.00;;;24.90;46.50;;;;;;4880706;29;20145;-79
2023/10/08 13:28:59;;;;;;;0.00;0.00;;;25.00;45.60;;;;;;4880703;29;20443;-79
2023/10/08 13:31:26;;;;;;;0.00;0.00;;;25.10;43.30;;;;;;4880555;29;20116;-79
2023/10/08 13:33:52;;;;;;;0.00;0.00;;;25.20;43.20;;;;;;4881835;29;20025;-79
2023/10/08 13:36:18;;;;;;;0.00;0.00;;;25.20;43.80;;;;;;4879599;29;20029;-79
2023/10/08 13:38:47;;;;;;;0.00;0.00;;;25.30;44.20;;;;;;4881972;29;20025;-79
2023/10/08 13:41:17;;;;;;;0.00;0.00;;;25.30;44.50;;;;;;4881307;29;20037;-79
2023/10/08 13:43:48;;;;;;;0.00;0.00;;;25.20;43.70;;;;;;4877972;29;20029;-79
2023/10/08 13:46:17;;;;;;;0.00;0.00;;;25.20;44.60;;;;;;4863181;29;20034;-79
2023/10/08 13:48:47;;;;;;;0.00;0.00;;;25.20;44.20;;;;;;4863249;29;20405;-78
2023/10/08 13:51:14;;;;;;;0.00;0.00;;;25.30;44.10;;;;;;4861884;29;20025;-79
2023/10/08 13:53:52;;;;;;;0.00;0.00;;;25.30;44.20;;;;;;4863004;29;20482;-78
2023/10/08 13:56:20;;;;;;;0.00;0.00;;;25.40;43.60;;;;;;4862978;29;20028;-76
2023/10/08 13:58:49;;;;;;;0.00;0.00;;;25.40;43.60;;;;;;4861495;29;20405;-79
2023/10/08 14:01:21;;;;;;;0.00;0.00;;;25.40;43.00;;;;;;4861843;29;20033;-78
2023/10/08 14:03:53;;;;;;;0.00;0.00;;;25.50;42.30;;;;;;4877407;29;20030;-78
2023/10/08 14:06:20;;;;;;;0.00;0.00;;;25.60;43.70;;;;;;4880395;29;20081;-78
2023/10/08 14:08:51;;;;;;;0.00;0.00;;;25.60;43.00;;;;;;4881053;29;20029;-81
2023/10/08 14:11:23;;;;;;;0.00;0.00;;;25.60;42.10;;;;;;4895691;29;20489;-80
2023/10/08 14:13:52;;;;;;;0.00;0.00;;;25.60;42.90;;;;;;4881524;29;20026;-78
2023/10/08 14:16:28;;;;;;;0.00;0.00;;;25.70;42.20;;;;;;4881463;29;20089;-78
2023/10/08 14:18:54;;;;;;;0.00;0.00;;;25.70;41.90;;;;;;4881236;29;20028;-78
2023/10/08 14:21:24;;;;;;;0.00;0.00;;;25.70;41.60;;;;;;4877480;29;20025;-78
2023/10/08 14:23:53;;;;;;;0.00;0.00;;;25.60;42.70;;;;;;4861482;29;20493;-79
2023/10/08 14:26:21;;;;;;;0.10;0.00;;;25.70;42.70;;;;;;4861920;29;20099;-78
2023/10/08 14:28:53;;;;;;;0.00;0.00;;;25.60;44.00;;;;;;4861297;29;20025;-78
2023/10/08 14:31:22;;;;;;;0.00;0.00;;;25.70;41.40;;;;;;4863368;29;20057;-79
2023/10/08 14:44:50;;;;;;;0.00;0.00;;;25.80;41.60;;;;;;4866445;29;20572;-79
2023/10/08 14:47:16;;;;;;;0.00;0.00;;;25.70;42.90;;;;;;4864947;29;20120;-79
2023/10/08 14:49:43;;;;;;;0.00;0.00;;;25.70;42.30;;;;;;4865040;29;20065;-79
2023/10/08 14:52:09;;;;;;;0.00;0.00;;;25.70;43.40;;;;;;4848051;29;20025;-79
2023/10/08 14:54:35;;;;;;;0.00;0.00;;;25.60;43.40;;;;;;4865401;29;20033;-80
2023/10/08 14:57:02;;;;;;;0.00;0.00;;;25.70;42.80;;;;;;4867723;29;20456;-80
2023/10/08 14:59:30;;;;;;;0.00;0.00;;;25.70;42.90;;;;;;4848914;29;20040;-79
2023/10/08 15:01:56;;;;;;;0.00;0.00;;;25.80;41.60;;;;;;4849092;29;20037;-80
2023/10/08 15:04:22;;;;;;;0.00;0.00;;;25.80;42.70;;;;;;4849191;29;20545;-80
2023/10/08 15:06:49;;;;;;;0.00;0.00;;;25.80;43.20;;;;;;4864948;29;20508;-80
2023/10/08 15:09:21;;;;;;;0.00;0.00;;;25.70;43.30;;;;;;4867017;29;20029;-80
2023/10/08 15:11:48;;;;;;;0.00;0.00;;;25.70;42.30;;;;;;4867325;29;20029;-80
2023/10/08 15:14:15;;;;;;;0.10;0.00;;;25.70;42.80;;;;;;4867347;29;20044;-80
2023/10/08 15:16:43;;;;;;;0.00;0.00;;;25.70;42.70;;;;;;4883869;29;20031;-80
2023/10/08 15:19:11;;;;;;;0.00;0.00;;;25.70;42.80;;;;;;4883823;29;20029;-80
2023/10/08 15:21:39;;;;;;;0.00;0.00;;;25.70;44.20;;;;;;4883550;29;20025;-80
2023/10/08 15:24:09;;;;;;;0.00;0.00;;;25.70;42.90;;;;;;4866445;29;20033;-80
2023/10/08 15:26:34;;;;;;;0.00;0.00;;;25.60;44.00;;;;;;4867436;29;20037;-80
2023/10/08 15:29:02;;;;;;;0.00;0.00;;;25.50;45.00;;;;;;4866969;29;20084;-80
2023/10/08 15:31:28;;;;;;;0.00;0.00;;;25.40;45.40;;;;;;4871871;29;20053;-80
2023/10/08 15:33:54;;;;;;;0.00;0.00;;;25.30;45.40;;;;;;4883684;29;20029;-80
2023/10/08 15:36:20;;;;;;;0.00;0.00;;;25.30;46.40;;;;;;4883372;29;20112;-80
2023/10/08 15:38:46;;;;;;;0.00;0.00;;;25.20;46.20;;;;;;4883517;29;20432;-80
2023/10/08 15:41:13;;;;;;;0.00;0.00;;;25.20;46.30;;;;;;4883166;29;20029;-80
2023/10/08 15:43:39;;;;;;;0.00;0.00;;;25.10;46.50;;;;;;4882299;29;20390;-80
2023/10/08 15:46:05;;;;;;;0.00;0.00;;;25.10;46.10;;;;;;4872622;29;20030;-80
2023/10/08 15:48:33;;;;;;;0.00;0.00;;;25.10;46.60;;;;;;4863184;29;20041;-80
2023/10/08 15:50:59;;;;;;;0.00;0.00;;;25.00;46.50;;;;;;4863625;29;20396;-80
2023/10/08 15:53:25;;;;;;;0.00;0.00;;;25.00;47.20;;;;;;4863309;29;20065;-80
2023/10/08 15:55:51;;;;;;;0.00;0.00;;;24.90;47.10;;;;;;4863435;29;20033;-80
2023/10/08 15:58:17;;;;;;;0.00;0.00;;;24.90;47.50;;;;;;4864674;29;20030;-80
2023/10/08 16:00:43;;;;;;;0.00;0.00;;;24.80;47.60;;;;;;4863162;29;20054;-83
2023/10/08 16:03:09;;;;;;;0.00;0.00;;;24.80;47.70;;;;;;4868772;29;20629;-77
2023/10/08 16:05:35;;;;;;;0.00;0.00;;;24.70;48.30;;;;;;4878484;29;20077;-78
2023/10/08 16:08:01;;;;;;;0.00;0.00;;;24.60;48.80;;;;;;4881294;29;20120;-81
2023/10/08 16:10:28;;;;;;;0.00;0.00;;;24.60;49.30;;;;;;4872120;29;20121;-80
2023/10/08 16:12:55;;;;;;;0.00;0.00;;;24.50;50.00;;;;;;4864294;29;20029;-79
2023/10/08 16:15:21;;;;;;;0.00;0.00;;;24.40;50.60;;;;;;4872671;29;20102;-79
2023/10/08 16:17:48;;;;;;;0.00;0.00;;;24.30;51.30;;;;;;4880688;29;20116;-80
2023/10/08 16:20:13;;;;;;;0.00;0.00;;;24.30;52.30;;;;;;4883044;29;20096;-79
2023/10/08 16:22:40;;;;;;;0.00;0.00;;;24.30;52.10;;;;;;4877776;29;20067;-80
2023/10/08 16:25:07;;;;;;;0.00;0.00;;;24.20;52.50;;;;;;4881111;29;20029;-80
2023/10/08 16:27:34;;;;;;;0.00;0.00;;;24.10;52.20;;;;;;4882741;29;20040;-80
2023/10/08 16:30:00;;;;;;;0.00;0.00;;;24.00;52.50;;;;;;4881582;29;20048;-87
2023/10/08 16:32:26;;;;;;;0.00;0.00;;;24.00;53.10;;;;;;4882909;29;20061;-82
2023/10/08 16:34:52;;;;;;;0.00;0.00;;;23.90;53.60;;;;;;4879943;29;20092;-81
2023/10/08 16:37:21;;;;;;;0.00;0.00;;;23.80;54.00;;;;;;4880183;29;20036;-82
2023/10/08 16:39:47;;;;;;;0.00;0.00;;;23.80;54.20;;;;;;4880991;29;20025;-81
2023/10/08 16:42:14;;;;;;;0.00;0.00;;;23.70;54.40;;;;;;4865668;29;20124;-82
2023/10/08 16:44:39;;;;;;;0.00;0.00;;;23.70;54.90;;;;;;4863481;29;20029;-81
2023/10/08 16:47:05;;;;;;;0.00;0.00;;;23.60;55.60;;;;;;4864842;29;20562;-81
2023/10/08 16:49:31;;;;;;;0.00;0.00;;;23.50;55.40;;;;;;4870665;29;20489;-81
2023/10/08 16:51:58;;;;;;;0.00;0.00;;;23.40;56.00;;;;;;4882412;29;20062;-82
2023/10/08 16:54:24;;;;;;;0.00;0.00;;;23.40;56.40;;;;;;4879322;29;20020;-84
2023/10/08 16:56:50;;;;;;;0.00;0.00;;;23.30;56.90;;;;;;4872974;29;20052;-84
2023/10/08 16:59:15;;;;;;;0.00;0.00;;;23.20;57.60;;;;;;4882124;29;20041;-82
2023/10/08 17:01:44;;;;;;;0.00;0.00;;;23.20;58.00;;;;;;4873585;29;20034;-80
2023/10/08 17:04:12;;;;;;;0.00;0.00;;;23.00;58.40;;;;;;4882631;29;20033;-81
2023/10/08 17:06:37;;;;;;;0.00;0.00;;;23.00;59.00;;;;;;4875654;29;20032;-78
2023/10/08 17:09:16;;;;;;;0.00;0.00;;;22.90;59.70;;;;;;4871415;29;20037;-80
2023/10/08 17:11:46;;;;;;;0.00;0.00;;;22.80;59.90;;;;;;4868689;29;20477;-84
2023/10/08 17:14:13;;;;;;;0.00;0.00;;;22.80;60.30;;;;;;4896445;29;20056;-79
2023/10/08 17:16:40;;;;;;;0.00;0.00;;;22.80;60.90;;;;;;4865314;29;20147;-83
2023/10/08 17:19:07;;;;;;;0.10;0.10;;;22.70;60.90;;;;;;4882389;29;20084;-86
2023/10/08 17:21:32;;;;;;;0.00;0.00;;;22.60;62.10;;;;;;4862779;29;20587;-89
2023/10/08 17:23:58;;;;;;;0.00;0.00;;;22.50;62.60;;;;;;4863077;29;20055;-79
2023/10/08 17:26:23;;;;;;;0.00;0.00;;;22.50;62.90;;;;;;4874389;29;20028;-86
2023/10/08 17:28:49;;;;;;;0.00;0.00;;;22.40;63.40;;;;;;4883103;29;20500;-81
2023/10/08 17:31:15;;;;;;;0.00;0.00;;;22.30;64.00;;;;;;4882835;29;20136;-82
2023/10/08 17:33:41;;;;;;;0.00;0.00;;;22.30;64.00;;;;;;4883172;29;20036;-85
2023/10/08 17:36:07;;;;;;;0.10;0.05;;;22.20;64.30;;;;;;4882162;29;20029;-83
2023/10/08 17:38:34;;;;;;;0.00;0.00;;;22.20;63.90;;;;;;4879043;29;20033;-89
2023/10/08 17:41:00;;;;;;;0.00;0.00;;;22.10;65.50;;;;;;4878400;29;20039;-84
2023/10/08 17:43:26;;;;;;;0.00;0.00;;;22.10;65.40;;;;;;4880973;29;20535;-85
2023/10/08 17:45:55;;;;;;;0.00;0.00;;;22.00;65.90;;;;;;4868056;29;20033;-89
2023/10/08 17:48:24;;;;;;;0.00;0.00;;;21.90;65.90;;;;;;4865646;29;20101;-84
2023/10/08 17:50:50;;;;;;;0.00;0.00;;;21.90;66.20;;;;;;4857603;29;20060;-83
2023/10/08 17:53:20;;;;;;;0.00;0.00;;;21.80;66.70;;;;;;4880219;29;20033;-88
2023/10/08 17:55:47;;;;;;;0.00;0.00;;;21.70;66.90;;;;;;4864824;29;20045;-92
2023/10/08 17:58:15;;;;;;;0.00;0.00;;;21.70;66.60;;;;;;4867404;29;20116;-91
2023/10/08 18:00:43;;;;;;;0.00;0.00;;;21.70;66.50;;;;;;4866803;29;20044;-91
2023/10/08 18:03:10;;;;;;;0.00;0.00;;;21.70;66.40;;;;;;4866860;29;20449;-88
2023/10/08 18:05:37;;;;;;;0.00;0.00;;;21.70;66.40;;;;;;4867463;29;20045;-91
2023/10/08 18:08:03;;;;;;;0.00;0.00;;;21.60;66.90;;;;;;4886926;29;20621;-93
2023/10/08 18:10:31;;;;;;;0.00;0.00;;;21.50;66.80;;;;;;4870420;29;20033;-90
2023/10/08 18:12:57;;;;;;;0.00;0.00;;;21.40;66.70;;;;;;4870615;29;20025;-89
2023/10/08 18:15:23;;;;;;;0.00;0.00;;;21.40;66.90;;;;;;4877820;29;20025;-90
2023/10/08 18:17:51;;;;;;;0.00;0.00;;;21.30;67.10;;;;;;4885928;29;20036;-85
2023/10/08 18:20:20;;;;;;;0.00;0.00;;;21.30;67.40;;;;;;4886927;29;20029;-90
2023/10/08 18:22:53;;;;;;;0.00;0.00;;;21.20;67.90;;;;;;4873810;29;20076;-94
2023/10/08 18:25:20;;;;;;;0.00;0.00;;;21.20;67.90;;;;;;4870627;29;20033;-85